logo
App data

Brain Spa

Welcome to the Brain Spa, a place where you can learn to maximize your memory, improve your perception abilities, power up your language aptitude, and fine tune your logical thinking skills! 8 different mini-games to play emphasizing four distinct categories of mental abilities: Memory, Perception, Logic, Language.
Store | Hub | SteamDB
Developer: Ubisoft Publisher: Ubisoft
Genre: Casual
Languages: English
Tags: Casual (20)
Category: Single-player, Multi-player, Co-op
Release date: Oct 10, 2008
Price: $9.99
Owners: 0 .. 20,000
Followers: 35
Peak concurrent players yesterday: 1

Steam Spy is still in beta, so expect major bugs.

Owners data:

Access restricted.

This feature is only available to users with special access rights. Sorry.

If you want to proceed, you need to register or log in first and then back Steam Spy on Patreon. Look for Indie or Pro pledge.

Don't forget to use the same email as on Steam Spy!

Audience in 2 weeks:

Access restricted.

This feature is only available to users with special access rights. Sorry.

If you want to proceed, you need to register or log in first and then back Steam Spy on Patreon. Look for Indie or Pro pledge.

Don't forget to use the same email as on Steam Spy!

Peak daily concurrent players:

CCU data courtesy of SteamDB. Used with permission.

Hourly concurrent players:

YouTube:

The views data is based on top 50 videos uploaded last week. Actual number of views might be more than the number shown.

The displayed number of videos uploaded yesterday is limited to 50, so if there were more videos uploaded, the number will still show 50.

If the game has commonly used word as its name (like "FEAR" or "Volume") its number of Youtube views might be wrong.

Games similar to this one:

# Game Release date
Price
Score rank
(Userscore / Metascore)
Owners
Players
Playtime (Median)
1 Radial-G : Racing Revolved Mar 28, 2016 $9.99N/A (N/A)0 .. 20,0000%00:00 (00:00)
2 RECYCLE Sep 3, 2014 $11.99N/A (N/A)20,000 .. 50,0000%00:00 (00:00)
3 Urban Trial Freestyle Sep 18, 2013 $6.99N/A (N/A/58%)100,000 .. 200,0000%00:00 (00:00)
4 Chocolatier: Decadence by Design Aug 12, 2009 $9.99N/A (N/A)0 .. 20,0000%00:00 (00:00)
5 Mystery P.I. - Lost in Los Angeles Jul 27, 2009 $4.99N/A (N/A)20,000 .. 50,0000%00:00 (00:00)
6 Dessert Storm Oct 23, 2016 $0.99N/A (N/A)50,000 .. 100,0000%00:00 (00:00)
7 Hidden Object 6-in-1 bundle Mar 16, 2016 $11.99N/A (N/A)20,000 .. 50,0000%00:00 (00:00)
8 MiniDrivers Aug 20, 2015 $5.99N/A (N/A)20,000 .. 50,0000%00:00 (00:00)
9 The Terminal 2 Aug 8, 2014 $4.99N/A (N/A)0 .. 20,0000%00:00 (00:00)
10 My Riding Stables: Life with Horses Mar 27, 2014 $14.99N/A (N/A)0 .. 20,0000%00:00 (00:00)
11 Air Conflicts: Secret Wars Sep 30, 2011 $5.99N/A (N/A/65%)50,000 .. 100,0000%00:00 (00:00)
12 Virtual Villagers: The Lost Children May 12, 2008 $9.99N/A (N/A)0 .. 20,0000%00:00 (00:00)
13 Typer Shark! Deluxe Aug 30, 2006 $4.99N/A (N/A)20,000 .. 50,0002.17%07:10 (02:23)
14 Evolution Planet: Gold Edition Jul 7, 2016 $4.99N/A (N/A)0 .. 20,0000%00:00 (00:00)
15 Polaris Sector Mar 22, 2016 $39.99N/A (N/A/76%)20,000 .. 50,0000%00:00 (00:00)
16 Elementary My Dear Majesty! Nov 15, 2013 $0.99N/A (N/A)50,000 .. 100,0000%00:00 (00:00)
17 G-Ball May 28, 2014 $0.99N/A (N/A)0 .. 20,0000%00:00 (00:00)
18 Bridge It + Nov 18, 2013 $6.99N/A (N/A)20,000 .. 50,0001.54%00:11 (00:03)
19 Cooking Dash Aug 12, 2009 $9.99N/A (N/A)0 .. 20,0000%00:00 (00:00)
20 City Life 2008 Sep 29, 2008 $9.99N/A (N/A)20,000 .. 50,0000%00:00 (00:00)
21 Bubble Blowout Oct 24, 2016 $0.99N/A (N/A)50,000 .. 100,0000%00:00 (00:00)
22 Gnomes Garden 2 May 18, 2016 $0.49N/A (N/A)20,000 .. 50,0000%00:00 (00:00)
23 Kumoon : Ballistic Physics Puzzle Nov 10, 2015 $2.99N/A (N/A)0 .. 20,0000%00:00 (00:00)
24 Tetris Ultimate Dec 10, 2015 N/AN/A (N/A)20,000 .. 50,0000%00:00 (00:00)
25 Riding Star - Horse Championship! Mar 27, 2014 $9.99N/A (N/A)0 .. 20,0000%00:00 (00:00)
26 YOU DON’T KNOW JACK Feb 8, 2011 N/AN/A (N/A/71%)0 .. 20,0000%00:00 (00:00)
27 Plant Tycoon May 12, 2008 $9.99N/A (N/A)0 .. 20,0000%00:00 (00:00)
28 Venice Deluxe Jun 25, 2007 $4.99N/A (N/A)20,000 .. 50,0000%00:00 (00:00)
29 Barnyard Mahjong 3 Jul 29, 2016 $1.99N/A (N/A)50,000 .. 100,0000%00:00 (00:00)
30 Home Design 3D Jan 30, 2015 $9.99N/A (N/A)20,000 .. 50,0000%00:00 (00:00)
31 Legends of Atlantis: Exodus Apr 9, 2012 $6.99N/A (N/A)0 .. 20,0000%00:00 (00:00)
32 Qvadriga Jun 13, 2014 $19.99N/A (N/A/72%)20,000 .. 50,0000%00:00 (00:00)
33 Theme Park Studio Dec 2, 2016 $29.99N/A (N/A)20,000 .. 50,0000%00:00 (00:00)
34 Diner Dash: Hometown Hero Aug 12, 2009 $9.99N/A (N/A)0 .. 20,0000%00:00 (00:00)
35 Pacific Storm Allies Aug 18, 2008 $7.99N/A (N/A/60%)50,000 .. 100,0000%00:00 (00:00)
36 Pretty Girls Panic! Dec 20, 2016 $1.99N/A (N/A)20,000 .. 50,0002.27%04:30 (02:02)
37 Rush for gold: California Mar 9, 2016 $3.99N/A (N/A)20,000 .. 50,0000%00:00 (00:00)
38 Baseball Mogul 2015 Apr 3, 2014 $4.99N/A (N/A)20,000 .. 50,0000%00:00 (00:00)
39 The Flying Dutchman Sep 12, 2014 $4.99N/A (N/A)0 .. 20,0000%00:00 (00:00)
40 Zooloretto Nov 1, 2011 $2.99N/A (N/A)0 .. 20,0000%00:00 (00:00)
41 Airline Tycoon 2 Oct 24, 2011 $9.99N/A (N/A/57%)50,000 .. 100,0000%00:00 (00:00)
42 Virtual Villagers - The Secret City May 28, 2008 $9.99N/A (N/A)0 .. 20,0000%00:00 (00:00)
43 Mystery P.I. - The Lottery Ticket Oct 16, 2007 $4.99N/A (N/A)20,000 .. 50,0000%00:00 (00:00)
44 The Hidden Dragon Jul 26, 2016 $2.99N/A (N/A)0 .. 20,0000%00:00 (00:00)
45 City Play May 19, 2016 $3.99N/A (N/A)0 .. 20,0000%00:00 (00:00)
46 Hidden Object Bundle 4 in 1 Jun 1, 2014 $7.99N/A (N/A)20,000 .. 50,0000%00:00 (00:00)
47 Runaway Express Mystery Sep 23, 2014 $6.99N/A (N/A)0 .. 20,0000%00:00 (00:00)
48 Pro Cycling Manager 2014 Jun 19, 2014 $9.99N/A (N/A)20,000 .. 50,0000%00:00 (00:00)
49 DinerTown Tycoon Sep 30, 2009 $9.99N/A (N/A)0 .. 20,0000%00:00 (00:00)
50 Luxor 2 Jun 10, 2008 $9.99N/A (N/A)20,000 .. 50,0000%00:00 (00:00)
51 Tropical Fish Shop 2 Feb 10, 2012 $3.99N/A (N/A)20,000 .. 50,0000%00:00 (00:00)
52 Toilet Tycoon Mar 1, 2000 $4.99N/A (N/A)0 .. 20,0000%00:00 (00:00)
53 Jane Angel: Templar Mystery Dec 10, 2009 $4.99N/A (N/A)20,000 .. 50,0000%00:00 (00:00)
54 Speed Kills May 16, 2014 $0.99N/A (N/A)200,000 .. 500,0000%00:00 (00:00)
55 Rotastic Oct 11, 2012 $9.99N/A (N/A)0 .. 20,0000%00:00 (00:00)
56 Chainz 2: Relinked Jul 13, 2009 $9.99N/A (N/A)0 .. 20,0000%00:00 (00:00)
57 Mystery P.I. - The Vegas Heist Jun 5, 2008 $4.99N/A (N/A)20,000 .. 50,0000%00:00 (00:00)
58 Kitty Cat: Jigsaw Puzzles Jul 18, 2016 $0.99N/A (N/A)50,000 .. 100,0000.47%00:01 (00:00)
59 Solitaire Christmas. Match 2 Cards Dec 24, 2015 $4.99N/A (N/A)50,000 .. 100,0000%00:00 (00:00)
60 Crash Dive Jul 6, 2015 $6.99N/A (N/A)0 .. 20,0000%00:00 (00:00)
61 Them - The Summoning May 16, 2014 $4.99N/A (N/A)0 .. 20,0000%00:00 (00:00)
62 Shufflepuck Cantina Deluxe Dec 6, 2013 $9.99N/A (N/A)100,000 .. 200,0000%00:00 (00:00)
63 TriJinx: A Kristine Kross Mystery May 6, 2010 $6.99N/A (N/A)0 .. 20,0000%00:00 (00:00)
64 Luxor 3 Jun 10, 2008 $9.99N/A (N/A)20,000 .. 50,0000.57%138:25 (46:08)
65 Nokori Mar 25, 2016 $0.99N/A (N/A)0 .. 20,0000%00:00 (00:00)
66 Pretty Girls Mahjong Solitaire Aug 24, 2015 $4.99N/A (N/A)50,000 .. 100,0000.76%05:06 (01:42)
67 Sea Legends: Phantasmal Light Collector's Edition Jan 15, 2012 $4.99N/A (N/A)50,000 .. 100,0000.71%00:36 (00:12)
68 Shannon Tweed's Attack Of The Groupies Apr 1, 2014 $4.99N/A (N/A)0 .. 20,0000%00:00 (00:00)
69 Aerofly FS 1 Flight Simulator Oct 17, 2012 $19.99N/A (N/A)0 .. 20,00014.29%00:11 (00:03)
70 Crash Time 3 Nov 25, 2009 $5.99N/A (N/A)20,000 .. 50,0002.5%01:20 (00:26)
71 Amazing Adventures Around the World Apr 15, 2009 $4.99N/A (N/A)20,000 .. 50,0000%00:00 (00:00)
72 Puppy Dog: Jigsaw Puzzles Jul 19, 2016 $0.99N/A (N/A)20,000 .. 50,0000%00:00 (00:00)
73 Stikbold! A Dodgeball Adventure Apr 1, 2016 $9.99N/A (N/A)50,000 .. 100,0000%00:00 (00:00)
74 Football Mogul 2014 Sep 4, 2013 $0.99N/A (N/A)0 .. 20,0000%00:00 (00:00)
75 300 Dwarves Jun 17, 2013 $6.99N/A (N/A)20,000 .. 50,0000%00:00 (00:00)
76 Little Racers STREET Feb 6, 2014 $5.99N/A (N/A/62%)100,000 .. 200,0000.27%00:15 (00:05)
77 Gemini Lost May 6, 2010 $6.99N/A (N/A)0 .. 20,0000%00:00 (00:00)
78 Luxor Jun 10, 2008 $9.99N/A (N/A)0 .. 20,0000%00:00 (00:00)
79 Space Codex May 9, 2016 $0.99N/A (N/A)200,000 .. 500,0000%00:00 (00:00)
80 Meridian: Age of Invention Jan 28, 2013 $2.99N/A (N/A)20,000 .. 50,0000%00:00 (00:00)
81 StuntMANIA Reloaded Nov 13, 2014 $2.49N/A (N/A)20,000 .. 50,0000%00:00 (00:00)
82 Firefighters 2014 May 21, 2014 $24.99N/A (N/A)50,000 .. 100,0000%00:00 (00:00)
83 Cities in Motion 2 Apr 2, 2013 $19.99N/A (N/A/72%)500,000 .. 1,000,0000.18%03:49 (02:32)
84 Puzzler World May 28, 2010 $4.99N/A (N/A)50,000 .. 100,0000%00:00 (00:00)
85 Peggle Nights Oct 15, 2008 $4.99N/A (N/A/76%)100,000 .. 200,0000.85%00:03 (00:02)
86 Firefighters - The Simulation Sep 18, 2012 $14.99N/A (N/A)0 .. 20,0000%00:00 (00:00)
87 PAC-MAN CHAMPIONSHIP EDITION 2 Sep 13, 2016 $12.99N/A (N/A)50,000 .. 100,0001.77%00:16 (00:10)
88 Big Thinkers 1st Grade Aug 18, 2015 $6.99N/A (N/A)0 .. 20,0000%00:00 (00:00)
89 Castle: Never Judge a Book by its Cover Jul 9, 2013 N/AN/A (N/A)50,000 .. 100,0000%00:00 (00:00)
90 Ski Region Simulator - Gold Edition Jan 16, 2013 $8.99N/A (N/A)20,000 .. 50,0004.65%03:39 (02:25)
91 Silent Hunter 5: Battle of the Atlantic Mar 2010 $9.99N/A (N/A/62%)100,000 .. 200,0003.28%04:06 (02:44)
92 Discovery! A Seek and Find Adventure Jul 29, 2008 $9.99N/A (N/A)0 .. 20,0000%00:00 (00:00)
93 Bejeweled 2 Deluxe Aug 30, 2006 $4.99N/A (N/A)50,000 .. 100,0000%00:00 (00:00)
94 Ludo Supremo Jun 8, 2016 $1.99N/A (N/A)20,000 .. 50,0000%00:00 (00:00)
95 Poker Pretty Girls Battle: Texas Hold'em Oct 21, 2015 $9.99N/A (N/A)20,000 .. 50,0001.05%04:06 (01:22)
96 Brink of Consciousness: The Lonely Hearts Murders Nov 24, 2014 $9.99N/A (N/A)0 .. 20,0000%00:00 (00:00)
97 Industry Empire Jul 30, 2014 $11.99N/A (N/A)20,000 .. 50,0006.67%00:21 (00:07)
98 Lords of Football Apr 5, 2013 $14.99N/A (N/A/52%)20,000 .. 50,0000%00:00 (00:00)
99 Combat Wings: Battle of Britain Oct 14, 2009 $4.99N/A (N/A)100,000 .. 200,0000%00:00 (00:00)
100 Mystery P.I. - The New York Fortune Jan 28, 2009 $4.99N/A (N/A)20,000 .. 50,0000%00:00 (00:00)
101 Fantastic 4 In A Row 2 Aug 15, 2016 $0.99N/A (N/A)50,000 .. 100,0000%00:00 (00:00)
102 Alice's Patchwork Mar 3, 2016 $4.99N/A (N/A)20,000 .. 50,0000%00:00 (00:00)
103 Diner Mania Jun 25, 2015 $3.99N/A (N/A)0 .. 20,0000%00:00 (00:00)
104 Echelon Apr 15, 2001 $3.99N/A (N/A/70%)0 .. 20,0001.67%00:08 (00:02)
105 Transport Giant Sep 5, 2014 $9.99N/A (N/A)100,000 .. 200,0002.22%00:05 (00:01)
106 Hotel Dash Suite Success May 6, 2010 $6.99N/A (N/A)0 .. 20,0000%00:00 (00:00)
107 7 Wonders: Treasures of Seven Nov 14, 2008 $9.99N/A (N/A)20,000 .. 50,0000.65%00:01 (00:00)
108 Chuzzle Deluxe Aug 30, 2006 $4.99N/A (N/A)50,000 .. 100,0000%00:00 (00:00)
109 Bayla Bunny Jun 13, 2016 $1.99N/A (N/A)50,000 .. 100,0000%00:00 (00:00)
110 Among the Heavens Nov 6, 2015 $2.99N/A (N/A)50,000 .. 100,0000%00:00 (00:00)
111 BasketBelle Dec 9, 2014 $4.99N/A (N/A)0 .. 20,0000%00:00 (00:00)
112 Putt-Putt and Fatty Bear's Activity Pack Mar 25, 1994 $4.99N/A (N/A)0 .. 20,0000%00:00 (00:00)
113 Cranky Cat Jun 5, 2013 $2.99N/A (N/A)0 .. 20,0000%00:00 (00:00)
114 Tradewinds Classics Jul 17, 2009 $4.99N/A (N/A)0 .. 20,0000%00:00 (00:00)
115 The Wizard's Pen Sep 16, 2008 $4.99N/A (N/A)20,000 .. 50,0000%00:00 (00:00)
116 Princess Maker 2 Refine Sep 28, 2016 $19.99N/A (N/A)20,000 .. 50,0000%00:00 (00:00)
117 Mr Nibbles Forever Apr 29, 2016 $0.99N/A (N/A)0 .. 20,0000%00:00 (00:00)
118 EVEREST VR Aug 2, 2016 $9.99N/A (N/A)0 .. 20,0000%00:00 (00:00)
119 Zombie Solitaire Nov 15, 2013 $8.99N/A (N/A)20,000 .. 50,0000%00:00 (00:00)
120 Ship Simulator: Maritime Search and Rescue Jul 1, 2014 $11.99N/A (N/A)20,000 .. 50,00016.67%05:17 (03:31)
121 Hacker Evolution: Untold Sep 14, 2010 $4.99N/A (N/A)200,000 .. 500,0000%00:00 (00:00)
122 Luxor: Quest for the Afterlife Dec 15, 2008 $9.99N/A (N/A)0 .. 20,0000.6%138:25 (46:08)
123 Zuma Deluxe Aug 30, 2006 $4.99N/A (N/A)100,000 .. 200,0002.61%00:24 (00:14)
124 Mahjong Destiny Jun 17, 2016 $1.99N/A (N/A)50,000 .. 100,0000%00:00 (00:00)
125 Gnomes Garden Dec 18, 2015 $4.99N/A (N/A)50,000 .. 100,0000%00:00 (00:00)

Tags over time:

Access restricted.

This feature is only available to users with special access rights. Sorry.

If you want to proceed, you need to register or log in first and then back Steam Spy on Patreon. Look for Indie or Pro pledge.

Don't forget to use the same email as on Steam Spy!

Owners of this game also own:

Access restricted.

This feature is only available to users with special access rights. Sorry.

If you want to proceed, you need to register or log in first and then back Steam Spy on Patreon. Look for Indie or Pro pledge.

Don't forget to use the same email as on Steam Spy!

Playtime distribution:

Access restricted.

This feature is only available to users with special access rights. Sorry.

If you want to proceed, you need to register or log in first and then back Steam Spy on Patreon. Look for Indie or Pro pledge.

Don't forget to use the same email as on Steam Spy!

Playtime (2 weeks):

Access restricted.

This feature is only available to users with special access rights. Sorry.

If you want to proceed, you need to register or log in first and then back Steam Spy on Patreon. Look for Indie or Pro pledge.

Don't forget to use the same email as on Steam Spy!

User reviews:

Login required.

Please register or log in to see this information.